createdAt,value
2023-02-11T00:02:24.339Z,60.73
2023-02-11T00:07:26.837Z,60.97
2023-02-11T00:12:29.807Z,60.13
2023-02-11T00:17:32.980Z,60.22
2023-02-11T00:22:35.406Z,60.61
2023-02-11T00:27:38.353Z,60.10
2023-02-11T00:32:42.847Z,60.79
2023-02-11T00:37:45.267Z,61.91
2023-02-11T00:42:47.856Z,61.61
2023-02-11T00:47:50.289Z,60.95
2023-02-11T00:52:52.766Z,61.80
2023-02-11T00:57:55.233Z,62.18
2023-02-11T01:02:57.680Z,62.19
2023-02-11T01:08:00.295Z,62.36
2023-02-11T01:13:02.898Z,63.04
2023-02-11T01:18:06.595Z,63.39
2023-02-11T01:23:09.159Z,62.94
2023-02-11T01:28:21.631Z,63.58
2023-02-11T01:33:24.868Z,63.27
2023-02-11T01:38:27.315Z,64.36
2023-02-11T01:43:34.900Z,63.68
2023-02-11T01:48:42.077Z,63.54
2023-02-11T01:54:03.748Z,63.78
2023-02-11T01:59:13.588Z,65.05
2023-02-11T02:04:19.311Z,65.22
2023-02-11T02:09:29.137Z,64.49
2023-02-11T02:14:31.837Z,64.94
2023-02-11T02:19:37.187Z,63.77
2023-02-11T02:25:04.228Z,63.26
2023-02-11T02:30:40.403Z,65.06
2023-02-11T02:35:54.224Z,64.49
2023-02-11T02:41:18.068Z,63.62
2023-02-11T02:46:21.866Z,63.91
2023-02-11T02:51:54.602Z,64.93
2023-02-11T02:56:56.929Z,64.13
2023-02-11T03:02:11.062Z,65.02
2023-02-11T03:07:23.396Z,63.76
2023-02-11T03:12:28.458Z,63.42
2023-02-11T03:17:33.890Z,63.36
2023-02-11T03:22:43.121Z,64.33
2023-02-11T03:27:49.684Z,63.30
2023-02-11T03:32:57.798Z,63.79
2023-02-11T03:38:10.656Z,62.87
2023-02-11T03:43:17.444Z,62.20
2023-02-11T03:48:25.997Z,62.11
2023-02-11T03:53:28.400Z,62.66
2023-02-11T03:58:31.018Z,62.54
2023-02-11T04:03:33.479Z,62.03
2023-02-11T04:08:36.018Z,61.25
2023-02-11T04:13:38.365Z,61.56
2023-02-11T04:18:40.770Z,61.33
2023-02-11T04:23:43.254Z,60.89
2023-02-11T04:28:45.564Z,62.45
2023-02-11T04:33:47.999Z,62.00
2023-02-11T04:38:50.367Z,61.27
2023-02-11T04:43:55.334Z,62.21
2023-02-11T04:48:57.881Z,61.19
2023-02-11T04:54:00.301Z,61.58
2023-02-11T04:59:02.871Z,60.48
2023-02-11T05:04:05.592Z,58.54
2023-02-11T05:09:12.958Z,58.41
2023-02-11T05:14:15.479Z,56.90
2023-02-11T05:19:18.103Z,55.15
2023-02-11T05:24:21.300Z,54.37
2023-02-11T05:29:23.709Z,53.68
2023-02-11T05:34:26.330Z,52.42
2023-02-11T05:39:28.880Z,52.09
2023-02-11T05:44:31.324Z,51.17
2023-02-11T05:49:33.744Z,49.51
2023-02-11T05:54:36.198Z,50.15
2023-02-11T05:59:40.264Z,51.23
2023-02-11T06:04:42.905Z,51.76
2023-02-11T06:09:45.456Z,50.82
2023-02-11T06:14:47.802Z,49.18
2023-02-11T06:19:50.250Z,48.95
2023-02-11T06:25:01.225Z,49.34
2023-02-11T06:30:07.722Z,47.80
2023-02-11T06:35:12.049Z,46.38
2023-02-11T06:40:15.014Z,44.78
2023-02-11T06:45:17.622Z,42.98
2023-02-11T06:50:20.142Z,41.96
2023-02-11T06:55:22.566Z,41.85
2023-02-11T07:00:25.113Z,41.23
2023-02-11T07:05:27.609Z,40.41
2023-02-11T07:10:30.169Z,39.77
2023-02-11T07:15:32.949Z,39.16
2023-02-11T07:20:38.326Z,39.00
2023-02-11T07:25:40.746Z,38.71
2023-02-11T07:30:43.242Z,38.02
2023-02-11T07:35:45.986Z,37.30
2023-02-11T07:40:49.399Z,37.27
2023-02-11T07:45:51.993Z,36.65
2023-02-11T07:50:54.569Z,35.70
2023-02-11T07:55:56.961Z,34.85
2023-02-11T08:01:08.492Z,32.34
2023-02-11T08:06:14.456Z,31.14
2023-02-11T08:11:18.014Z,30.34
2023-02-11T08:16:28.186Z,30.13
2023-02-11T08:21:30.770Z,30.35
2023-02-11T08:26:37.441Z,30.13
2023-02-11T08:31:43.063Z,29.72
2023-02-11T08:36:47.262Z,29.01
2023-02-11T08:41:56.839Z,29.49
2023-02-11T08:46:59.538Z,28.84
2023-02-11T08:52:04.455Z,29.73
2023-02-11T08:57:06.984Z,28.77
2023-02-11T09:02:13.742Z,28.37
2023-02-11T09:07:18.735Z,27.79
2023-02-11T09:12:21.189Z,27.86
2023-02-11T09:17:23.696Z,28.31
2023-02-11T09:22:26.164Z,27.07
2023-02-11T09:27:28.642Z,26.78
2023-02-11T09:32:31.139Z,26.13
2023-02-11T09:37:36.288Z,27.44
2023-02-11T09:42:50.667Z,26.17
2023-02-11T09:48:16.547Z,27.85
2023-02-11T09:53:26.469Z,28.21
2023-02-11T09:58:32.707Z,28.46
2023-02-11T10:03:58.000Z,27.06
2023-02-11T10:09:09.464Z,27.01
2023-02-11T10:14:45.648Z,27.23
2023-02-11T10:20:07.132Z,27.38
2023-02-11T10:25:59.396Z,28.02
2023-02-11T10:31:16.112Z,27.06
2023-02-11T10:36:21.250Z,27.05
2023-02-11T10:41:35.442Z,28.10
2023-02-11T10:46:41.219Z,28.38
2023-02-11T10:51:43.749Z,27.86
2023-02-11T10:56:52.392Z,28.33
2023-02-11T11:02:00.850Z,29.47
2023-02-11T11:07:20.807Z,29.23
2023-02-11T11:12:53.180Z,30.28
2023-02-11T11:18:21.897Z,30.87
2023-02-11T11:23:26.190Z,32.33
2023-02-11T11:28:31.027Z,30.97
2023-02-11T11:33:36.008Z,31.90
2023-02-11T11:38:45.398Z,32.01
2023-02-11T11:43:58.808Z,33.93
2023-02-11T11:49:30.150Z,32.95
2023-02-11T11:54:34.781Z,34.39
2023-02-11T11:59:38.513Z,34.47
2023-02-11T12:05:11.267Z,36.54
2023-02-11T12:10:19.674Z,36.83
2023-02-11T12:16:04.303Z,37.92
2023-02-11T12:21:21.775Z,38.11
2023-02-11T12:26:29.420Z,39.81
2023-02-11T12:31:56.323Z,40.79
2023-02-11T12:37:09.600Z,41.45
2023-02-11T12:42:49.118Z,42.91
2023-02-11T12:48:13.184Z,44.29
2023-02-11T12:53:49.967Z,45.41
2023-02-11T12:58:56.287Z,45.82
2023-02-11T13:04:26.546Z,46.38
2023-02-11T13:09:53.033Z,46.88
2023-02-11T13:14:59.808Z,47.83
2023-02-11T13:20:15.650Z,48.48
2023-02-11T13:25:31.858Z,49.16
2023-02-11T13:30:41.299Z,49.50
2023-02-11T13:36:09.707Z,50.31
2023-02-11T13:41:25.918Z,51.31
2023-02-11T13:46:30.559Z,52.23
2023-02-11T13:51:42.732Z,52.13
2023-02-11T13:56:46.595Z,53.57
2023-02-11T14:02:09.078Z,54.26
2023-02-11T14:07:51.889Z,54.26
2023-02-11T14:13:16.939Z,55.25
2023-02-11T14:18:38.866Z,55.42
2023-02-11T14:23:42.436Z,55.41
2023-02-11T14:28:47.201Z,55.44
2023-02-11T14:34:15.416Z,55.84
2023-02-11T14:39:40.654Z,57.16
2023-02-11T14:44:43.157Z,56.11
2023-02-11T14:49:45.723Z,56.58
2023-02-11T14:54:51.470Z,56.83
2023-02-11T15:00:21.913Z,56.95
2023-02-11T15:05:30.008Z,58.05
2023-02-11T15:10:55.586Z,58.45
2023-02-11T15:16:06.979Z,58.91
2023-02-11T15:21:10.443Z,59.39
2023-02-11T15:26:22.673Z,59.18
2023-02-11T15:31:27.566Z,60.04
2023-02-11T15:36:34.599Z,60.04
2023-02-11T15:41:38.568Z,60.38
2023-02-11T15:46:41.499Z,59.96
2023-02-11T15:51:46.497Z,60.81
2023-02-11T15:56:51.809Z,60.97
2023-02-11T16:01:55.492Z,61.19
2023-02-11T16:06:58.346Z,61.34
2023-02-11T16:12:24.821Z,61.93
2023-02-11T16:17:30.528Z,61.65
2023-02-11T16:22:38.371Z,62.25
2023-02-11T16:27:43.454Z,61.96
2023-02-11T16:32:45.916Z,62.28
2023-02-11T16:37:48.399Z,62.38
2023-02-11T16:42:52.695Z,62.83
2023-02-11T16:47:55.213Z,62.82
2023-02-11T16:52:59.713Z,63.04
2023-02-11T16:58:02.213Z,63.29
2023-02-11T17:03:09.177Z,63.60
2023-02-11T17:08:12.164Z,63.86
2023-02-11T17:13:14.718Z,64.12
2023-02-11T17:18:17.161Z,64.58
2023-02-11T17:23:19.527Z,64.67
2023-02-11T17:28:22.482Z,65.27
2023-02-11T17:33:25.252Z,64.79
2023-02-11T17:38:27.830Z,64.63
2023-02-11T17:43:30.659Z,64.74
2023-02-11T17:48:33.110Z,65.42
2023-02-11T17:53:35.847Z,65.27
2023-02-11T17:58:38.629Z,65.70
2023-02-11T18:03:41.209Z,65.51
2023-02-11T18:08:46.258Z,65.24
2023-02-11T18:13:54.585Z,66.09
2023-02-11T18:18:58.606Z,65.24
2023-02-11T18:24:06.717Z,65.58
2023-02-11T18:29:09.749Z,65.67
2023-02-11T18:34:16.213Z,65.29
2023-02-11T18:39:20.320Z,65.22
2023-02-11T18:44:25.049Z,65.11
2023-02-11T18:49:27.752Z,65.10
2023-02-11T18:54:30.262Z,65.73
2023-02-11T18:59:32.683Z,66.05
2023-02-11T19:04:37.537Z,65.91
2023-02-11T19:09:39.996Z,66.28
2023-02-11T19:14:42.676Z,66.73
2023-02-11T19:19:45.114Z,66.40
2023-02-11T19:24:47.695Z,66.79
2023-02-11T19:29:50.224Z,66.25
2023-02-11T19:34:53.463Z,66.51
2023-02-11T19:39:55.969Z,66.89
2023-02-11T19:45:00.672Z,66.28
2023-02-11T19:50:04.615Z,66.54
2023-02-11T19:55:07.980Z,66.55
2023-02-11T20:00:11.498Z,66.48
2023-02-11T20:05:17.120Z,66.13
2023-02-11T20:10:19.629Z,66.19
2023-02-11T20:15:22.193Z,66.06
2023-02-11T20:20:24.660Z,66.41
2023-02-11T20:25:29.861Z,65.58
2023-02-11T20:30:35.379Z,65.87
2023-02-11T20:35:38.257Z,65.25
2023-02-11T20:40:40.708Z,65.27
2023-02-11T20:45:43.224Z,65.46
2023-02-11T20:50:48.278Z,65.57
2023-02-11T20:55:51.032Z,66.18
2023-02-11T21:00:53.709Z,64.93
2023-02-11T21:05:59.134Z,64.77
2023-02-11T21:11:02.179Z,65.61
2023-02-11T21:16:05.567Z,65.42
2023-02-11T21:21:11.465Z,65.70
2023-02-11T21:26:14.583Z,65.08
2023-02-11T21:31:25.660Z,65.24
2023-02-11T21:36:29.199Z,65.03
2023-02-11T21:41:31.698Z,65.17
2023-02-11T21:46:34.193Z,64.61
2023-02-11T21:51:36.637Z,64.42
2023-02-11T21:56:39.044Z,65.20
2023-02-11T22:01:41.815Z,65.56
2023-02-11T22:07:09.617Z,65.40
2023-02-11T22:12:12.166Z,64.45
2023-02-11T22:17:14.980Z,64.19
2023-02-11T22:22:19.941Z,65.31
2023-02-11T22:27:22.694Z,65.04
2023-02-11T22:32:25.240Z,64.57
2023-02-11T22:37:27.802Z,64.58
2023-02-11T22:42:30.569Z,64.89
2023-02-11T22:47:33.110Z,65.04
2023-02-11T22:52:36.639Z,65.08
2023-02-11T22:57:42.079Z,64.62
2023-02-11T23:02:44.846Z,65.04
2023-02-11T23:07:47.448Z,65.25
2023-02-11T23:12:50.022Z,64.99
2023-02-11T23:17:52.570Z,65.37
2023-02-11T23:22:55.929Z,64.78
2023-02-11T23:27:59.102Z,64.40
2023-02-11T23:33:01.641Z,64.53
2023-02-11T23:38:05.245Z,64.76
2023-02-11T23:43:07.817Z,65.23
2023-02-11T23:48:13.389Z,65.47
2023-02-11T23:53:17.736Z,65.57
2023-02-11T23:58:20.361Z,64.49
